sensor_id;sensor_type;location;lat;lon;timestamp;P1;durP1;ratioP1;P2;durP2;ratioP2
46597;SDS011;32318;48.858;8.252;2023-02-13T00:07:57;16.90;;;8.35;;
46597;SDS011;32318;48.858;8.252;2023-02-13T00:15:59;24.90;;;8.77;;
46597;SDS011;32318;48.858;8.252;2023-02-13T00:24:00;20.40;;;8.75;;
46597;SDS011;32318;48.858;8.252;2023-02-13T00:32:00;25.73;;;9.93;;
46597;SDS011;32318;48.858;8.252;2023-02-13T00:40:00;22.00;;;9.32;;
46597;SDS011;32318;48.858;8.252;2023-02-13T00:48:01;22.33;;;9.23;;
46597;SDS011;32318;48.858;8.252;2023-02-13T00:56:01;16.20;;;8.13;;
46597;SDS011;32318;48.858;8.252;2023-02-13T01:04:02;21.23;;;9.15;;
46597;SDS011;32318;48.858;8.252;2023-02-13T01:12:03;21.17;;;9.15;;
46597;SDS011;32318;48.858;8.252;2023-02-13T01:20:04;21.23;;;9.07;;
46597;SDS011;32318;48.858;8.252;2023-02-13T01:28:08;19.42;;;9.52;;
46597;SDS011;32318;48.858;8.252;2023-02-13T01:36:09;26.92;;;10.43;;
46597;SDS011;32318;48.858;8.252;2023-02-13T01:52:59;21.80;;;9.77;;
46597;SDS011;32318;48.858;8.252;2023-02-13T02:01:03;25.25;;;10.38;;
46597;SDS011;32318;48.858;8.252;2023-02-13T02:09:07;18.42;;;8.95;;
46597;SDS011;32318;48.858;8.252;2023-02-13T02:17:11;20.08;;;8.80;;
46597;SDS011;32318;48.858;8.252;2023-02-13T02:33:41;18.60;;;7.93;;
46597;SDS011;32318;48.858;8.252;2023-02-13T02:42:36;21.10;;;8.95;;
46597;SDS011;32318;48.858;8.252;2023-02-13T02:50:36;19.27;;;8.20;;
46597;SDS011;32318;48.858;8.252;2023-02-13T02:58:46;15.48;;;6.93;;
46597;SDS011;32318;48.858;8.252;2023-02-13T03:07:10;15.85;;;7.50;;
46597;SDS011;32318;48.858;8.252;2023-02-13T03:15:14;13.35;;;6.68;;
46597;SDS011;32318;48.858;8.252;2023-02-13T03:31:34;18.13;;;7.47;;
46597;SDS011;32318;48.858;8.252;2023-02-13T03:47:57;15.40;;;6.90;;
46597;SDS011;32318;48.858;8.252;2023-02-13T03:55:59;12.63;;;6.50;;
46597;SDS011;32318;48.858;8.252;2023-02-13T04:13:18;15.05;;;5.95;;
46597;SDS011;32318;48.858;8.252;2023-02-13T04:21:32;13.60;;;6.30;;
46597;SDS011;32318;48.858;8.252;2023-02-13T04:29:33;17.50;;;5.82;;
46597;SDS011;32318;48.858;8.252;2023-02-13T04:37:34;10.55;;;5.68;;
46597;SDS011;32318;48.858;8.252;2023-02-13T04:45:34;20.73;;;6.25;;
46597;SDS011;32318;48.858;8.252;2023-02-13T04:53:34;21.48;;;7.70;;
46597;SDS011;32318;48.858;8.252;2023-02-13T05:01:34;16.23;;;6.85;;
46597;SDS011;32318;48.858;8.252;2023-02-13T05:09:35;17.15;;;6.80;;
46597;SDS011;32318;48.858;8.252;2023-02-13T05:17:35;15.68;;;6.75;;
46597;SDS011;32318;48.858;8.252;2023-02-13T05:25:36;17.67;;;7.93;;
46597;SDS011;32318;48.858;8.252;2023-02-13T05:33:37;15.85;;;6.65;;
46597;SDS011;32318;48.858;8.252;2023-02-13T05:41:38;16.00;;;5.82;;
46597;SDS011;32318;48.858;8.252;2023-02-13T05:49:38;18.13;;;6.60;;
46597;SDS011;32318;48.858;8.252;2023-02-13T05:57:38;20.73;;;7.85;;
46597;SDS011;32318;48.858;8.252;2023-02-13T06:05:39;23.30;;;9.68;;
46597;SDS011;32318;48.858;8.252;2023-02-13T06:13:39;22.95;;;10.82;;
46597;SDS011;32318;48.858;8.252;2023-02-13T06:21:39;17.98;;;8.05;;
46597;SDS011;32318;48.858;8.252;2023-02-13T06:29:40;14.88;;;7.07;;
46597;SDS011;32318;48.858;8.252;2023-02-13T06:37:40;23.08;;;7.40;;
46597;SDS011;32318;48.858;8.252;2023-02-13T06:45:44;35.63;;;11.85;;
46597;SDS011;32318;48.858;8.252;2023-02-13T06:53:46;45.58;;;15.13;;
46597;SDS011;32318;48.858;8.252;2023-02-13T07:01:46;69.75;;;18.50;;
46597;SDS011;32318;48.858;8.252;2023-02-13T07:09:46;52.13;;;14.50;;
46597;SDS011;32318;48.858;8.252;2023-02-13T07:17:46;68.15;;;19.65;;
46597;SDS011;32318;48.858;8.252;2023-02-13T07:25:47;65.68;;;21.40;;
46597;SDS011;32318;48.858;8.252;2023-02-13T07:33:47;80.53;;;26.70;;
46597;SDS011;32318;48.858;8.252;2023-02-13T07:41:48;74.57;;;24.35;;
46597;SDS011;32318;48.858;8.252;2023-02-13T07:49:48;83.00;;;23.92;;
46597;SDS011;32318;48.858;8.252;2023-02-13T07:57:49;78.82;;;24.42;;
46597;SDS011;32318;48.858;8.252;2023-02-13T08:05:49;79.80;;;23.60;;
46597;SDS011;32318;48.858;8.252;2023-02-13T08:13:49;86.20;;;26.98;;
46597;SDS011;32318;48.858;8.252;2023-02-13T08:21:50;82.88;;;27.52;;
46597;SDS011;32318;48.858;8.252;2023-02-13T08:29:50;79.25;;;26.38;;
46597;SDS011;32318;48.858;8.252;2023-02-13T08:37:51;81.30;;;25.73;;
46597;SDS011;32318;48.858;8.252;2023-02-13T08:45:57;84.28;;;26.23;;
46597;SDS011;32318;48.858;8.252;2023-02-13T08:53:58;81.22;;;25.23;;
46597;SDS011;32318;48.858;8.252;2023-02-13T09:01:58;90.32;;;28.00;;
46597;SDS011;32318;48.858;8.252;2023-02-13T09:09:58;90.80;;;29.92;;
46597;SDS011;32318;48.858;8.252;2023-02-13T09:17:59;101.70;;;30.83;;
46597;SDS011;32318;48.858;8.252;2023-02-13T09:25:59;84.25;;;27.70;;
46597;SDS011;32318;48.858;8.252;2023-02-13T09:34:03;89.93;;;28.42;;
46597;SDS011;32318;48.858;8.252;2023-02-13T09:42:05;97.95;;;28.33;;
46597;SDS011;32318;48.858;8.252;2023-02-13T09:50:29;81.78;;;25.25;;
46597;SDS011;32318;48.858;8.252;2023-02-13T10:06:40;110.10;;;35.00;;
46597;SDS011;32318;48.858;8.252;2023-02-13T10:23:54;92.65;;;27.95;;
46597;SDS011;32318;48.858;8.252;2023-02-13T10:32:10;92.88;;;30.17;;
46597;SDS011;32318;48.858;8.252;2023-02-13T10:40:16;105.32;;;31.02;;
46597;SDS011;32318;48.858;8.252;2023-02-13T10:48:21;117.00;;;32.33;;
46597;SDS011;32318;48.858;8.252;2023-02-13T11:04:43;101.93;;;30.83;;
46597;SDS011;32318;48.858;8.252;2023-02-13T11:12:44;98.38;;;29.65;;
46597;SDS011;32318;48.858;8.252;2023-02-13T11:20:45;104.10;;;31.90;;
46597;SDS011;32318;48.858;8.252;2023-02-13T11:28:49;84.60;;;28.23;;
46597;SDS011;32318;48.858;8.252;2023-02-13T11:37:06;85.82;;;28.75;;
46597;SDS011;32318;48.858;8.252;2023-02-13T11:45:19;78.72;;;27.98;;
46597;SDS011;32318;48.858;8.252;2023-02-13T11:53:24;72.40;;;26.10;;
46597;SDS011;32318;48.858;8.252;2023-02-13T12:01:28;86.00;;;28.03;;
46597;SDS011;32318;48.858;8.252;2023-02-13T12:09:29;75.40;;;26.73;;
46597;SDS011;32318;48.858;8.252;2023-02-13T12:17:30;79.05;;;26.95;;
46597;SDS011;32318;48.858;8.252;2023-02-13T12:34:11;79.82;;;29.58;;
46597;SDS011;32318;48.858;8.252;2023-02-13T13:08:20;84.28;;;30.90;;
46597;SDS011;32318;48.858;8.252;2023-02-13T13:16:49;78.90;;;29.67;;
46597;SDS011;32318;48.858;8.252;2023-02-13T13:25:11;80.40;;;29.95;;
46597;SDS011;32318;48.858;8.252;2023-02-13T13:33:22;74.00;;;30.38;;
46597;SDS011;32318;48.858;8.252;2023-02-13T13:41:41;79.82;;;31.38;;
46597;SDS011;32318;48.858;8.252;2023-02-13T13:49:57;73.30;;;29.58;;
46597;SDS011;32318;48.858;8.252;2023-02-13T13:57:59;80.03;;;28.90;;
46597;SDS011;32318;48.858;8.252;2023-02-13T14:06:07;102.80;;;33.75;;
46597;SDS011;32318;48.858;8.252;2023-02-13T14:22:31;73.97;;;29.30;;
46597;SDS011;32318;48.858;8.252;2023-02-13T14:30:35;73.68;;;30.20;;
46597;SDS011;32318;48.858;8.252;2023-02-13T14:38:38;76.75;;;29.30;;
46597;SDS011;32318;48.858;8.252;2023-02-13T14:46:38;74.32;;;29.17;;
46597;SDS011;32318;48.858;8.252;2023-02-13T14:54:44;75.55;;;28.83;;
46597;SDS011;32318;48.858;8.252;2023-02-13T15:02:58;70.35;;;29.42;;
46597;SDS011;32318;48.858;8.252;2023-02-13T15:11:03;78.28;;;30.73;;
46597;SDS011;32318;48.858;8.252;2023-02-13T15:19:03;80.35;;;33.05;;
46597;SDS011;32318;48.858;8.252;2023-02-13T15:27:05;74.38;;;29.15;;
46597;SDS011;32318;48.858;8.252;2023-02-13T15:35:28;68.40;;;28.02;;
46597;SDS011;32318;48.858;8.252;2023-02-13T15:43:31;65.72;;;28.65;;
46597;SDS011;32318;48.858;8.252;2023-02-13T15:51:34;82.97;;;32.58;;
46597;SDS011;32318;48.858;8.252;2023-02-13T15:59:35;70.88;;;29.23;;
46597;SDS011;32318;48.858;8.252;2023-02-13T16:07:51;63.13;;;26.00;;
46597;SDS011;32318;48.858;8.252;2023-02-13T16:15:53;65.18;;;25.92;;
46597;SDS011;32318;48.858;8.252;2023-02-13T16:24:03;69.03;;;28.58;;
46597;SDS011;32318;48.858;8.252;2023-02-13T16:32:09;64.78;;;26.17;;
46597;SDS011;32318;48.858;8.252;2023-02-13T16:40:36;66.97;;;26.17;;
46597;SDS011;32318;48.858;8.252;2023-02-13T16:48:38;57.30;;;24.27;;
46597;SDS011;32318;48.858;8.252;2023-02-13T17:12:47;59.70;;;24.67;;
46597;SDS011;32318;48.858;8.252;2023-02-13T17:20:48;73.15;;;27.85;;
46597;SDS011;32318;48.858;8.252;2023-02-13T17:28:49;59.58;;;25.58;;
46597;SDS011;32318;48.858;8.252;2023-02-13T17:36:49;57.45;;;23.67;;
46597;SDS011;32318;48.858;8.252;2023-02-13T17:44:49;58.30;;;23.83;;
46597;SDS011;32318;48.858;8.252;2023-02-13T17:52:50;59.53;;;26.13;;
46597;SDS011;32318;48.858;8.252;2023-02-13T18:00:51;78.82;;;29.33;;
46597;SDS011;32318;48.858;8.252;2023-02-13T18:08:51;114.60;;;36.67;;
46597;SDS011;32318;48.858;8.252;2023-02-13T18:16:51;88.30;;;31.48;;
46597;SDS011;32318;48.858;8.252;2023-02-13T18:24:52;78.13;;;29.15;;
46597;SDS011;32318;48.858;8.252;2023-02-13T18:32:53;72.10;;;28.30;;
46597;SDS011;32318;48.858;8.252;2023-02-13T18:40:55;84.97;;;32.03;;
46597;SDS011;32318;48.858;8.252;2023-02-13T18:48:55;102.70;;;35.45;;
46597;SDS011;32318;48.858;8.252;2023-02-13T18:56:56;105.93;;;38.08;;
46597;SDS011;32318;48.858;8.252;2023-02-13T19:04:56;102.50;;;36.40;;
46597;SDS011;32318;48.858;8.252;2023-02-13T19:12:56;96.40;;;33.17;;
46597;SDS011;32318;48.858;8.252;2023-02-13T19:20:57;113.75;;;34.38;;
46597;SDS011;32318;48.858;8.252;2023-02-13T19:29:01;130.63;;;34.13;;
46597;SDS011;32318;48.858;8.252;2023-02-13T19:37:02;130.90;;;31.65;;
46597;SDS011;32318;48.858;8.252;2023-02-13T19:45:03;93.38;;;29.30;;
46597;SDS011;32318;48.858;8.252;2023-02-13T19:53:03;85.03;;;28.03;;
46597;SDS011;32318;48.858;8.252;2023-02-13T20:01:25;114.30;;;27.85;;
46597;SDS011;32318;48.858;8.252;2023-02-13T20:09:26;142.05;;;29.10;;
46597;SDS011;32318;48.858;8.252;2023-02-13T20:17:27;96.57;;;26.73;;
46597;SDS011;32318;48.858;8.252;2023-02-13T20:25:27;75.80;;;23.88;;
46597;SDS011;32318;48.858;8.252;2023-02-13T20:33:31;81.05;;;21.95;;
46597;SDS011;32318;48.858;8.252;2023-02-13T20:41:31;97.15;;;25.27;;
46597;SDS011;32318;48.858;8.252;2023-02-13T20:49:33;93.35;;;23.92;;
46597;SDS011;32318;48.858;8.252;2023-02-13T20:57:34;71.03;;;23.02;;
46597;SDS011;32318;48.858;8.252;2023-02-13T21:05:35;121.25;;;24.35;;
46597;SDS011;32318;48.858;8.252;2023-02-13T21:13:35;74.65;;;24.52;;
46597;SDS011;32318;48.858;8.252;2023-02-13T21:21:36;83.68;;;24.75;;
46597;SDS011;32318;48.858;8.252;2023-02-13T21:29:37;92.47;;;24.55;;
46597;SDS011;32318;48.858;8.252;2023-02-13T21:37:38;61.10;;;21.70;;
46597;SDS011;32318;48.858;8.252;2023-02-13T21:45:39;109.45;;;25.65;;
46597;SDS011;32318;48.858;8.252;2023-02-13T21:53:39;80.07;;;25.83;;
46597;SDS011;32318;48.858;8.252;2023-02-13T22:01:40;107.45;;;26.05;;
46597;SDS011;32318;48.858;8.252;2023-02-13T22:09:41;62.08;;;23.52;;
46597;SDS011;32318;48.858;8.252;2023-02-13T22:17:41;92.03;;;23.38;;
46597;SDS011;32318;48.858;8.252;2023-02-13T22:25:50;87.30;;;27.58;;
46597;SDS011;32318;48.858;8.252;2023-02-13T22:33:50;129.07;;;33.33;;
46597;SDS011;32318;48.858;8.252;2023-02-13T22:41:53;166.25;;;37.40;;
46597;SDS011;32318;48.858;8.252;2023-02-13T22:49:54;86.70;;;26.23;;
46597;SDS011;32318;48.858;8.252;2023-02-13T22:57:55;77.13;;;24.73;;
46597;SDS011;32318;48.858;8.252;2023-02-13T23:05:55;88.40;;;23.55;;
46597;SDS011;32318;48.858;8.252;2023-02-13T23:13:56;61.72;;;21.15;;
46597;SDS011;32318;48.858;8.252;2023-02-13T23:21:57;71.70;;;21.05;;
46597;SDS011;32318;48.858;8.252;2023-02-13T23:29:58;106.18;;;22.08;;
46597;SDS011;32318;48.858;8.252;2023-02-13T23:37:58;80.65;;;22.45;;
46597;SDS011;32318;48.858;8.252;2023-02-13T23:46:01;86.72;;;22.00;;
46597;SDS011;32318;48.858;8.252;2023-02-13T23:54:02;129.95;;;23.45;;
